Latest Weather Observations for Alva Beach

IDQ60801

Issued at 10:32 am EST Friday 28 July 2017 (issued every 30 minutes, with the page automatically refreshed every 10 minutes)

About weather observations | Map of weather stations | Latest weather observations for QLD | Other Formats
Station Details ID: 033295 Name: ALVA BEACH Lat: -19.46 Lon: 147.48 Height: 7.5 m
Data from the previous 72 hours. | See also: Recent months at Alva Beach
Date/Time
EST
Temp
°C
App
Temp
°C
Dew
Point
°C
Rel
Hum
%
Delta-T
°C
Wind Press
QNH
hPa
Press
MSL
hPa
Rain since
9am
mm
Dir  Spd
km/h
Gust
km/h
Spd
kts
Gust
kts
28/10:30am 23.1 21.1 13.8 55 5.4 SE 17 24 9 13 1022.0 1022.0 0.0
28/10:00am 23.3 22.3 14.6 58 5.1 SE 13 20 7 11 1022.0 1022.0 0.0
28/09:30am 22.4 21.7 14.3 60 4.7 SSE 11 17 6 9 1021.8 1021.8 0.0
28/09:00am 20.5 19.3 13.9 66 3.8 S 13 20 7 11 1021.7 1021.7 0.0
28/08:30am 18.8 17.3 13.2 70 3.2 S 13 17 7 9 1021.5 1021.5 0.0
28/08:00am 17.2 15.8 12.3 73 2.7 S 11 17 6 9 1021.4 1021.4 0.0
28/07:30am 15.6 13.7 11.8 78 2.1 SSW 13 17 7 9 1021.3 1021.3 0.0
28/07:00am 14.5 13.3 12.7 89 1.0 S 11 15 6 8 1021.1 1021.1 0.0
28/06:30am 14.3 12.9 12.3 88 1.1 S 11 15 6 8 1021.0 1021.0 0.0
28/06:00am 14.8 13.4 12.3 85 1.4 S 11 15 6 8 1020.9 1020.9 0.0
28/05:30am 14.7 13.1 11.7 82 1.6 S 11 15 6 8 1020.7 1020.7 0.0
28/05:00am 14.9 13.7 11.5 80 1.8 S 9 17 5 9 1020.5 1020.5 0.0
28/04:30am 14.9 13.7 11.5 80 1.8 S 9 11 5 6 1020.6 1020.6 0.0
28/04:00am 15.6 14.4 11.6 77 2.2 S 9 13 5 7 1020.8 1020.8 0.0
28/03:30am 16.0 14.4 11.6 75 2.4 S 11 15 6 8 1021.1 1021.1 0.0
28/03:00am 16.6 15.2 12.2 75 2.4 S 11 17 6 9 1021.4 1021.4 0.0
28/02:30am 17.7 16.5 12.8 73 2.7 SSE 11 17 6 9 1021.3 1021.3 0.0
28/02:00am 18.1 16.6 13.2 73 2.8 SSE 13 20 7 11 1021.3 1021.3 0.0
28/01:30am 18.2 16.9 13.7 75 2.6 SSE 13 22 7 12 1021.5 1021.5 0.0
28/01:00am 17.8 17.1 13.3 75 2.5 SSE 9 17 5 9 1021.7 1021.7 0.0
28/12:30am 18.7 18.3 12.9 69 3.3 SSE 7 13 4 7 1021.7 1021.7 0.0
28/12:00am 20.0 18.8 13.9 68 3.5 SE 13 22 7 12 1021.7 1021.7 0.0
 
Date/Time
EST
Temp
°C
App
Temp
°C
Dew
Point
°C
Rel
Hum
%
Delta-T
°C
Wind Press
QNH
hPa
Press
MSL
hPa
Rain since
9am
mm
Dir  Spd
km/h
Gust
km/h
Spd
kts
Gust
kts
27/11:30pm 20.4 18.1 14.1 67 3.6 ESE 19 28 10 15 1021.7 1021.7 0.0
27/11:00pm 20.4 18.0 14.5 69 3.4 SE 20 30 11 16 1021.8 1021.8 0.0
27/10:30pm 20.5 17.9 13.7 65 3.9 ESE 20 32 11 17 1021.9 1021.9 0.0
27/10:00pm 20.7 18.1 13.9 65 3.9 ESE 20 28 11 15 1021.8 1021.8 0.0
27/09:30pm 21.0 17.5 13.4 62 4.4 E 24 35 13 19 1021.5 1021.5 0.0
27/09:00pm 21.1 17.6 13.5 62 4.4 E 24 32 13 17 1021.3 1021.3 0.0
27/08:30pm 21.2 18.3 14.1 64 4.1 E 22 32 12 17 1021.1 1021.1 0.0
27/08:00pm 21.0 18.1 15.1 69 3.5 ESE 24 32 13 17 1020.7 1020.7 0.0
27/07:30pm 20.9 18.4 15.2 70 3.4 E 22 32 12 17 1020.4 1020.4 0.0
27/07:00pm 21.0 18.6 15.5 71 3.3 E 22 30 12 16 1020.0 1020.0 0.0
27/06:30pm 20.9 19.1 15.4 71 3.3 ESE 19 26 10 14 1019.7 1019.7 0.0
27/06:00pm 21.2 19.3 15.3 69 3.5 E 19 30 10 16 1019.2 1019.2 0.0
27/05:30pm 21.7 19.5 14.8 65 4.1 E 20 30 11 16 1018.8 1018.8 0.0
27/05:00pm 22.1 19.6 14.2 61 4.6 E 20 28 11 15 1018.7 1018.7 0.0
27/04:30pm 22.8 20.6 13.3 55 5.5 E 17 28 9 15 1018.7 1018.7 0.0
27/04:00pm 22.8 20.0 12.7 53 5.8 E 19 28 10 15 1018.7 1018.7 0.0
27/03:30pm 23.0 20.4 13.8 56 5.4 E 20 28 11 15 1018.7 1018.7 0.0
27/03:00pm 23.0 20.1 12.3 51 6.1 E 19 30 10 16 1018.9 1018.9 0.0
27/02:30pm 23.5 21.1 12.8 51 6.1 E 17 26 9 14 1019.2 1019.2 0.0
27/02:00pm 24.8 22.0 11.4 43 7.5 ESE 17 24 9 13 1019.5 1019.5 0.0
27/01:30pm 24.7 21.2 10.9 42 7.7 ESE 20 30 11 16 1019.7 1019.7 0.0
27/01:00pm 24.7 21.3 10.6 41 7.8 ESE 19 32 10 17 1020.1 1020.1 0.0
27/12:30pm 24.5 20.8 11.5 44 7.3 ESE 22 33 12 18 1020.8 1020.8 0.0
27/12:00pm 24.0 19.8 11.0 44 7.2 ESE 24 33 13 18 1021.4 1021.4 0.0
27/11:30am 23.2 19.4 11.3 47 6.6 SE 22 35 12 19 1021.8 1021.8 0.0
27/11:00am 23.4 19.9 12.1 49 6.4 ESE 22 35 12 19 1022.0 1022.0 0.0
27/10:30am 23.5 19.5 11.9 48 6.6 ESE 24 33 13 18 1022.2 1022.2 0.0
27/10:00am 22.9 20.2 13.4 55 5.5 ESE 20 30 11 16 1022.3 1022.3 0.0
27/09:30am 22.4 19.9 10.9 48 6.4 SE 15 26 8 14 1022.4 1022.4 0.0
27/09:00am 21.1 20.1 13.5 62 4.4 S 11 19 6 10 1022.1 1022.1 0.0
27/08:30am 19.4 18.5 13.6 69 3.3 S 11 20 6 11 1021.7 1021.7 0.0
27/08:00am 17.8 16.8 13.3 75 2.5 S 11 17 6 9 1021.1 1021.1 0.0
27/07:30am 16.2 15.3 12.7 80 1.9 S 9 15 5 8 1020.7 1020.7 0.0
27/07:00am 15.7 14.8 12.5 81 1.8 S 9 13 5 7 1020.2 1020.2 0.0
27/06:30am 16.5 15.6 12.7 78 2.1 SSE 9 15 5 8 1019.9 1019.9 0.0
27/06:00am 16.8 16.0 12.9 78 2.2 SSE 9 15 5 8 1019.3 1019.3 0.0
27/05:30am 17.8 16.8 13.3 75 2.5 SSE 11 17 6 9 1018.9 1018.9 0.0
27/05:00am 18.0 16.8 12.7 71 3.0 SSE 11 22 6 12 1018.8 1018.8 0.0
27/04:30am 19.8 18.7 14.4 71 3.1 SE 13 20 7 11 1018.8 1018.8 0.0
27/04:00am 20.0 18.3 14.8 72 3.0 SE 17 28 9 15 1018.9 1018.9 0.0
27/03:30am 19.9 18.5 14.5 71 3.1 SE 15 24 8 13 1018.9 1018.9 0.0
27/03:00am 19.9 18.9 14.7 72 3.0 SE 13 22 7 12 1019.1 1019.1 0.0
27/02:30am 20.4 18.4 15.4 73 3.0 SE 20 28 11 15 1019.3 1019.3 0.0
27/02:00am 20.5 18.4 15.3 72 3.1 ESE 20 30 11 16 1019.6 1019.6 0.0
27/01:30am 20.7 18.8 15.7 73 3.0 ESE 20 32 11 17 1019.8 1019.8 0.0
27/01:00am 20.8 19.1 15.8 73 3.0 SE 19 30 10 16 1020.0 1020.0 0.0
27/12:30am 20.8 19.5 15.8 73 3.0 ESE 17 30 9 16 1020.2 1020.2 0.0
27/12:00am 21.2 19.2 15.5 70 3.4 ESE 20 32 11 17 1020.4 1020.4 0.0
 
Date/Time
EST
Temp
°C
App
Temp
°C
Dew
Point
°C
Rel
Hum
%
Delta-T
°C
Wind Press
QNH
hPa
Press
MSL
hPa
Rain since
9am
mm
Dir  Spd
km/h
Gust
km/h
Spd
kts
Gust
kts
26/11:30pm 21.1 19.3 15.6 71 3.3 ESE 19 30 10 16 1020.3 1020.3 0.0
26/11:00pm 21.1 18.9 15.9 72 3.1 ESE 22 32 12 17 1020.2 1020.2 0.0
26/10:30pm 21.1 18.3 15.4 70 3.4 E 24 33 13 18 1020.2 1020.2 0.0
26/10:00pm 21.4 17.9 15.5 69 3.5 E 28 39 15 21 1020.2 1020.2 0.0
26/09:30pm 21.2 19.0 16.0 72 3.1 ESE 22 32 12 17 1020.2 1020.2 0.0
26/09:00pm 21.2 18.4 15.3 69 3.5 ESE 24 33 13 18 1020.0 1020.0 0.0
26/08:30pm 21.4 18.3 15.5 69 3.5 E 26 33 14 18 1019.8 1019.8 0.0
26/08:00pm 21.5 18.6 16.0 71 3.3 E 26 35 14 19 1019.7 1019.7 0.0
26/07:30pm 21.5 18.9 15.8 70 3.4 E 24 35 13 19 1019.4 1019.4 0.0
26/07:00pm 21.7 19.1 16.0 70 3.4 E 24 32 13 17 1019.4 1019.4 0.0
26/06:30pm 21.7 19.6 15.3 67 3.8 E 20 30 11 16 1019.2 1019.2 0.0
26/06:00pm 21.8 19.2 13.9 61 4.6 ESE 20 32 11 17 1019.0 1019.0 0.0
26/05:30pm 21.9 20.0 14.3 62 4.4 E 17 24 9 13 1018.8 1018.8 0.0
26/05:00pm 22.4 19.9 13.5 57 5.1 ESE 19 26 10 14 1018.5 1018.5 0.0
26/04:30pm 23.4 20.5 12.4 50 6.3 ESE 19 28 10 15 1018.4 1018.4 0.0
26/04:00pm 24.1 21.3 12.7 49 6.5 ESE 19 30 10 16 1018.4 1018.4 0.0
26/03:30pm 24.6 22.1 13.5 50 6.5 ESE 19 28 10 15 1018.4 1018.4 0.0
26/03:00pm 24.5 22.3 13.4 50 6.5 ESE 17 24 9 13 1018.4 1018.4 0.0
26/02:30pm 25.0 23.4 13.9 50 6.5 ESE 15 22 8 12 1018.4 1018.4 0.0
26/02:00pm 24.4 22.0 12.7 48 6.7 ESE 17 28 9 15 1018.7 1018.7 0.0
26/01:30pm 24.2 22.2 12.8 49 6.6 ESE 15 26 8 14 1019.2 1019.2 0.0
26/01:00pm 24.3 22.4 14.1 53 6.0 ESE 17 26 9 14 1019.6 1019.6 0.0
26/12:30pm 24.3 23.0 13.8 52 6.2 ESE 13 19 7 10 1020.0 1020.0 0.0
26/12:00pm 23.8 22.1 13.6 52 5.9 ESE 15 22 8 12 1020.5 1020.5 0.0
26/11:30am 23.6 22.1 13.2 52 6.0 SE 13 20 7 11 1020.9 1020.9 0.0
26/11:00am 22.7 20.6 13.5 56 5.3 ESE 17 28 9 15 1021.2 1021.2 0.0
26/10:30am 22.6 20.7 13.1 55 5.5 SE 15 26 8 14 1021.4 1021.4 0.0
26/10:00am 22.3 20.6 12.5 53 5.5 SE 13 20 7 11 1021.6 1021.6 0.0
26/09:30am 21.2 20.5 13.1 60 4.6 SSE 9 15 5 8 1021.6 1021.6 0.0
26/09:00am 18.9 17.5 12.2 65 3.7 S 11 17 6 9 1021.5 1021.5 0.0
26/08:30am 17.3 16.2 12.0 71 2.9 SSW 9 15 5 8 1021.3 1021.3 0.0
26/08:00am 15.3 14.2 11.9 80 1.8 SSW 9 15 5 8 1021.0 1021.0 0.0
26/07:30am 13.5 12.3 11.6 88 1.0 SSW 9 13 5 7 1020.6 1020.6 0.0
26/07:00am 12.8 11.5 11.4 91 0.7 SSW 9 13 5 7 1020.3 1020.3 0.0
26/06:30am 12.9 11.7 11.6 92 0.7 SSW 9 13 5 7 1020.0 1020.0 0.0
26/06:00am 13.0 11.8 11.7 92 0.7 SSW 9 13 5 7 1019.7 1019.7 0.0
26/05:30am 13.1 12.0 11.8 92 0.7 SSW 9 11 5 6 1019.6 1019.6 0.0
26/05:00am 13.3 12.6 11.9 91 0.7 SSW 7 11 4 6 1019.3 1019.3 0.0
26/04:30am 13.8 12.8 12.2 90 0.9 SSW 9 13 5 7 1019.2 1019.2 0.0
26/04:00am 14.4 13.0 12.3 87 1.1 S 11 17 6 9 1019.2 1019.2 0.0
26/03:30am 15.3 13.7 11.7 79 1.9 S 11 17 6 9 1019.2 1019.2 0.0
26/03:00am 19.5 18.3 14.1 71 3.1 SE 13 22 7 12 1019.2 1019.2 0.0
26/02:30am 20.0 17.8 14.8 72 3.0 SE 20 32 11 17 1019.4 1019.4 0.0
26/02:00am 20.1 18.0 15.3 74 2.8 ESE 20 33 11 18 1019.5 1019.5 0.0
26/01:30am 20.3 18.6 15.7 75 2.7 ESE 19 28 10 15 1019.8 1019.8 0.0
26/01:00am 20.5 17.3 15.3 72 3.1 ESE 26 35 14 19 1019.8 1019.8 0.0
26/12:30am 20.7 17.5 15.3 71 3.2 E 26 39 14 21 1019.8 1019.8 0.0
26/12:00am 20.7 17.1 15.3 71 3.2 ESE 28 37 15 20 1019.8 1019.8 0.0
 
Date/Time
EST
Temp
°C
App
Temp
°C
Dew
Point
°C
Rel
Hum
%
Delta-T
°C
Wind Press
QNH
hPa
Press
MSL
hPa
Rain since
9am
mm
Dir  Spd
km/h
Gust
km/h
Spd
kts
Gust
kts
25/11:30pm 20.7 18.5 15.9 74 2.9 ESE 22 33 12 18 1020.1 1020.1 0.0
25/11:00pm 20.7 18.5 15.9 74 2.9 ESE 22 37 12 20 1020.4 1020.4 0.0
25/10:30pm 20.8 19.1 16.2 75 2.8 ESE 20 32 11 17 1020.4 1020.4 0.0
25/10:00pm 21.2 17.7 15.5 70 3.4 E 28 37 15 20 1020.3 1020.3 0.0
25/09:30pm 21.2 18.0 15.3 69 3.5 E 26 37 14 20 1020.1 1020.1 0.0
25/09:00pm 21.3 18.1 15.2 68 3.6 E 26 37 14 20 1020.2 1020.2 0.0
25/08:30pm 21.4 17.9 15.5 69 3.5 E 28 39 15 21 1020.0 1020.0 0.0
25/08:00pm 21.6 17.7 15.4 68 3.7 E 30 39 16 21 1019.8 1019.8 0.0
25/07:30pm 21.5 18.1 15.8 70 3.4 E 28 37 15 20 1019.6 1019.6 0.0
25/07:00pm 21.5 18.4 16.5 73 3.0 E 28 41 15 22 1019.3 1019.3 0.0
25/06:30pm 21.6 18.9 16.6 73 3.0 E 26 37 14 20 1019.1 1019.1 0.0
25/06:00pm 21.7 18.5 16.2 71 3.3 E 28 39 15 21 1018.9 1018.9 0.0
25/05:30pm 22.0 18.5 15.4 66 3.9 E 28 39 15 21 1018.6 1018.6 0.0
25/05:00pm 22.3 19.1 15.4 65 4.1 E 26 35 14 19 1018.4 1018.4 0.0
25/04:30pm 22.7 19.2 14.5 60 4.8 E 26 39 14 21 1018.3 1018.3 0.0
25/04:00pm 22.9 20.2 15.5 63 4.4 E 24 35 13 19 1018.3 1018.3 0.0
25/03:30pm 23.1 20.2 15.2 61 4.7 E 24 32 13 17 1018.2 1018.2 0.0
25/03:00pm 23.2 20.0 14.2 57 5.3 E 24 33 13 18 1018.1 1018.1 0.0
25/02:30pm 23.4 19.8 13.0 52 6.0 E 24 37 13 20 1018.2 1018.2 0.0
25/02:00pm 24.9 21.6 12.8 47 7.0 ESE 22 33 12 18 1018.4 1018.4 0.0
25/01:30pm 24.9 22.0 14.1 51 6.4 ESE 22 32 12 17 1018.7 1018.7 0.0
25/01:00pm 24.5 21.9 13.7 51 6.3 ESE 20 33 11 18 1019.1 1019.1 0.0
25/12:30pm 24.6 22.4 13.2 49 6.6 ESE 17 26 9 14 1019.5 1019.5 0.0
25/12:00pm 24.9 22.6 14.1 51 6.4 ESE 19 28 10 15 1020.0 1020.0 0.0
25/11:30am 24.4 22.3 13.6 51 6.3 ESE 17 32 9 17 1020.4 1020.4 0.0
25/11:00am 23.8 22.2 13.9 54 5.8 SE 15 28 8 15 1020.8 1020.8 0.0

Other Formats:

Comma delimited format used in spreadsheet applications
http://www.bom.gov.au/fwo/IDQ60801/IDQ60801.95296.axf

JavaScript Object Notation format (JSON) in row-major order
http://www.bom.gov.au/fwo/IDQ60801/IDQ60801.95296.json